臺北終端管制區 - 桃園南區雷達席

METAR RCTP 290530Z 26014KT 9999 FEW015 FEW020TCU SCT200 35/27 Q0999 NOSIG RMK TCU E-ESE A2952=

站台狀態:Offline
最後更新:2021-07-29 14:00:01